Time;durP1;ratioP1;P1;durP2;ratioP2;P2;SDS_P1;SDS_P2;PMS_P1;PMS_P2;Temp;Humidity;BMP_temperature;BMP_pressure;BME280_temperature;BME280_humidity;BME280_pressure;Samples;Min_cycle;Max_cycle;Signal;HPM_P1;HPM_P2
2022/09/20 00:01:22;;;;;;;4.75;1.13;;;9.60;99.90;;;;;;4899056;29;20178;-86
2022/09/20 00:03:56;;;;;;;8.80;1.27;;;9.60;99.90;;;;;;4898826;29;20232;-88
2022/09/20 00:06:28;;;;;;;7.70;1.42;;;9.50;99.90;;;;;;4915583;29;20194;-88
2022/09/20 00:11:32;;;;;;;5.45;1.50;;;9.50;99.90;;;;;;5139349;23;20256;-87
2022/09/20 00:14:00;;;;;;;5.78;1.17;;;9.50;99.90;;;;;;4899052;29;20178;-87
2022/09/20 00:16:30;;;;;;;4.97;1.30;;;9.40;99.90;;;;;;4898698;29;20278;-87
2022/09/20 00:18:57;;;;;;;6.72;1.58;;;9.40;99.90;;;;;;4898816;29;20186;-87
2022/09/20 00:21:28;;;;;;;7.10;1.60;;;9.40;99.90;;;;;;4899040;29;20206;-87
2022/09/20 00:23:56;;;;;;;5.20;1.50;;;9.40;99.90;;;;;;4898951;29;20202;-87
2022/09/20 00:26:22;;;;;;;3.67;1.10;;;9.30;99.90;;;;;;4898549;29;20206;-87
2022/09/20 00:28:49;;;;;;;4.88;1.13;;;9.40;99.90;;;;;;4897793;29;20690;-88
2022/09/20 00:31:16;;;;;;;5.57;1.70;;;9.40;99.90;;;;;;4898873;29;20210;-87
2022/09/20 00:36:26;;;;;;;6.85;1.17;;;9.40;99.90;;;;;;4915669;29;20265;-87
2022/09/20 00:38:59;;;;;;;6.40;1.45;;;9.30;99.90;;;;;;4898652;29;20171;-88
2022/09/20 00:41:31;;;;;;;9.48;1.50;;;9.30;99.90;;;;;;4898341;29;20254;-87
2022/09/20 00:43:59;;;;;;;4.80;1.50;;;9.40;99.90;;;;;;4898674;29;20198;-87
2022/09/20 00:46:37;;;;;;;4.53;1.30;;;9.40;99.90;;;;;;4898549;29;20203;-86
2022/09/20 00:49:16;;;;;;;5.50;1.48;;;9.40;99.90;;;;;;4898801;29;20166;-86
2022/09/20 00:51:48;;;;;;;7.03;1.35;;;9.40;99.90;;;;;;4898662;29;20182;-87
2022/09/20 00:54:17;;;;;;;5.80;1.30;;;9.40;99.90;;;;;;4915468;29;20182;-87
2022/09/20 00:56:43;;;;;;;7.95;1.33;;;9.40;99.90;;;;;;4898437;29;20234;-87
2022/09/20 00:59:18;;;;;;;4.75;1.13;;;9.40;99.90;;;;;;4915434;29;20174;-87
2022/09/20 01:01:47;;;;;;;10.23;1.45;;;9.40;99.90;;;;;;4898870;29;20190;-87
2022/09/20 01:04:15;;;;;;;14.50;1.40;;;9.50;99.90;;;;;;4898197;29;20206;-88
2022/09/20 01:06:43;;;;;;;7.03;1.50;;;9.50;99.90;;;;;;4898634;29;20167;-87
2022/09/20 01:09:09;;;;;;;5.22;1.30;;;9.50;99.90;;;;;;4898476;29;20183;-88
2022/09/20 01:11:36;;;;;;;12.02;1.50;;;9.50;99.90;;;;;;4897946;29;20230;-87
2022/09/20 01:14:03;;;;;;;5.43;1.17;;;9.50;99.90;;;;;;4898534;29;20190;-86
2022/09/20 01:16:30;;;;;;;5.63;1.25;;;9.50;99.90;;;;;;4898535;29;20246;-86
2022/09/20 01:18:59;;;;;;;6.13;1.20;;;9.50;99.90;;;;;;4899773;29;20190;-87
2022/09/20 01:21:26;;;;;;;7.63;1.23;;;9.60;99.90;;;;;;4901739;29;20186;-87
2022/09/20 01:24:15;;;;;;;6.18;1.10;;;9.60;99.90;;;;;;4902660;29;20202;-88
2022/09/20 01:26:57;;;;;;;3.03;1.35;;;9.60;99.90;;;;;;4902198;29;20179;-87
2022/09/20 01:29:50;;;;;;;4.60;1.30;;;9.60;99.90;;;;;;4901889;29;20182;-87
2022/09/20 01:32:24;;;;;;;5.65;1.35;;;9.60;99.90;;;;;;4918751;29;20198;-86
2022/09/20 01:34:58;;;;;;;6.75;1.15;;;9.60;99.90;;;;;;4901789;29;20205;-87
2022/09/20 01:37:53;;;;;;;8.80;1.75;;;9.70;99.90;;;;;;4901671;29;20233;-87
2022/09/20 01:40:19;;;;;;;5.05;1.70;;;9.70;99.90;;;;;;4891630;29;20203;-87
2022/09/20 01:42:58;;;;;;;10.75;1.58;;;9.70;99.90;;;;;;4918582;29;20250;-87
2022/09/20 01:45:28;;;;;;;5.40;1.60;;;9.70;99.90;;;;;;4901711;29;20275;-87
2022/09/20 01:48:19;;;;;;;5.68;1.70;;;9.70;99.90;;;;;;4901677;29;20187;-87
2022/09/20 01:50:53;;;;;;;6.35;1.63;;;9.80;99.90;;;;;;4901672;29;20211;-87
2022/09/20 01:53:38;;;;;;;3.63;1.30;;;9.80;99.90;;;;;;4918538;29;20167;-86
2022/09/20 01:56:47;;;;;;;5.97;1.75;;;9.80;99.90;;;;;;4901529;29;20237;-86
2022/09/20 01:59:28;;;;;;;6.93;2.00;;;9.80;99.90;;;;;;4901451;29;20210;-86
2022/09/20 02:02:16;;;;;;;10.38;1.90;;;9.80;99.90;;;;;;4901130;29;20177;-86
2022/09/20 02:05:00;;;;;;;8.82;1.75;;;9.90;99.90;;;;;;4855960;29;20647;-87
2022/09/20 02:07:47;;;;;;;9.65;2.55;;;9.90;99.90;;;;;;4901303;29;20273;-87
2022/09/20 02:10:38;;;;;;;7.30;2.17;;;9.90;99.90;;;;;;4881130;29;20737;-86
2022/09/20 02:13:39;;;;;;;8.63;2.58;;;9.90;99.90;;;;;;4898049;29;20183;-87
2022/09/20 02:16:11;;;;;;;9.50;2.72;;;10.00;99.90;;;;;;4879636;29;20275;-88
2022/09/20 02:18:42;;;;;;;8.48;2.65;;;9.90;99.90;;;;;;4898089;29;20171;-87
2022/09/20 02:21:22;;;;;;;13.80;3.40;;;10.00;99.90;;;;;;4898178;29;20665;-86
2022/09/20 02:24:29;;;;;;;7.63;2.67;;;9.90;99.90;;;;;;4882161;29;20210;-87
2022/09/20 02:27:10;;;;;;;13.73;3.10;;;10.00;99.90;;;;;;4882092;29;20202;-88
2022/09/20 02:29:56;;;;;;;9.57;3.55;;;10.00;99.90;;;;;;4882268;29;20206;-87
2022/09/20 02:32:55;;;;;;;11.52;4.15;;;10.00;99.90;;;;;;4882453;29;20662;-86
2022/09/20 02:35:31;;;;;;;10.73;3.78;;;10.00;99.90;;;;;;4882150;29;20203;-87
2022/09/20 02:38:10;;;;;;;13.82;4.03;;;9.90;99.90;;;;;;4882008;29;20189;-86
2022/09/20 02:40:50;;;;;;;11.88;4.20;;;10.00;99.90;;;;;;4885791;29;20191;-86
2022/09/20 02:43:37;;;;;;;11.93;4.88;;;9.90;99.90;;;;;;4897201;29;20270;-86
2022/09/20 02:46:11;;;;;;;11.48;5.05;;;9.90;99.90;;;;;;4881604;29;20332;-86
2022/09/20 02:48:48;;;;;;;11.55;4.63;;;9.90;99.90;;;;;;4897941;29;20745;-85
2022/09/20 02:51:39;;;;;;;13.98;5.03;;;9.90;99.90;;;;;;4914006;29;20182;-86
2022/09/20 02:54:39;;;;;;;13.57;5.07;;;9.90;99.90;;;;;;4893456;29;20206;-86
2022/09/20 02:57:18;;;;;;;9.80;5.05;;;9.90;99.90;;;;;;4900346;29;20193;-87
2022/09/20 03:00:14;;;;;;;13.10;5.28;;;9.90;99.90;;;;;;4900272;29;20201;-86
2022/09/20 03:03:05;;;;;;;13.57;5.50;;;9.90;99.90;;;;;;4900073;29;20187;-87
2022/09/20 03:06:01;;;;;;;12.05;5.20;;;9.80;99.90;;;;;;4900220;29;20209;-86
2022/09/20 03:08:49;;;;;;;14.63;5.57;;;9.80;99.90;;;;;;4890174;29;20194;-86
2022/09/20 03:12:05;;;;;;;17.58;5.95;;;9.90;99.90;;;;;;4899827;29;20293;-85
2022/09/20 03:14:52;;;;;;;15.82;6.05;;;9.80;99.90;;;;;;4821939;29;20761;-87
2022/09/20 03:17:46;;;;;;;15.52;5.90;;;9.80;99.90;;;;;;4899985;29;20182;-86
2022/09/20 03:20:40;;;;;;;12.23;6.10;;;9.80;99.90;;;;;;4899979;29;20175;-88
2022/09/20 03:23:29;;;;;;;12.77;5.87;;;9.80;99.90;;;;;;4899812;29;20225;-86
2022/09/20 03:26:04;;;;;;;14.90;6.28;;;9.80;99.90;;;;;;4899786;29;20206;-86
2022/09/20 03:28:56;;;;;;;12.07;6.05;;;9.80;99.90;;;;;;4899961;29;20174;-87
2022/09/20 03:31:32;;;;;;;12.45;5.88;;;9.80;99.90;;;;;;4900050;29;20186;-87
2022/09/20 03:34:32;;;;;;;12.70;6.90;;;9.70;99.90;;;;;;4899853;29;20210;-86
2022/09/20 03:37:01;;;;;;;14.23;6.88;;;9.70;99.90;;;;;;4899839;29;20179;-87
2022/09/20 03:40:10;;;;;;;15.07;6.35;;;9.80;99.90;;;;;;4899965;29;20179;-87
2022/09/20 03:42:46;;;;;;;15.02;5.68;;;9.80;99.90;;;;;;4898452;29;20229;-86
2022/09/20 03:45:39;;;;;;;15.30;6.18;;;9.70;99.90;;;;;;4899438;29;20245;-86
2022/09/20 03:48:16;;;;;;;15.25;5.70;;;9.80;99.90;;;;;;4899856;29;20206;-87
2022/09/20 03:51:01;;;;;;;11.25;5.53;;;9.70;99.90;;;;;;4899786;29;20714;-87
2022/09/20 03:53:39;;;;;;;13.52;6.00;;;9.70;99.90;;;;;;4892455;29;20206;-87
2022/09/20 03:56:30;;;;;;;12.48;5.88;;;9.80;99.90;;;;;;4899349;29;20254;-87
2022/09/20 03:59:05;;;;;;;17.05;5.35;;;9.80;99.90;;;;;;4899487;29;20646;-87
2022/09/20 04:01:59;;;;;;;16.40;5.82;;;9.80;99.90;;;;;;4899230;29;20554;-87
2022/09/20 04:04:47;;;;;;;17.00;6.10;;;9.80;99.90;;;;;;4898818;29;20721;-87
2022/09/20 04:07:42;;;;;;;13.35;5.65;;;9.70;99.90;;;;;;4899458;29;20251;-86
2022/09/20 04:10:35;;;;;;;14.23;6.10;;;9.70;99.90;;;;;;4899129;29;20234;-87
2022/09/20 04:13:38;;;;;;;18.83;5.95;;;9.70;99.90;;;;;;4899366;29;20223;-88
2022/09/20 04:16:38;;;;;;;12.70;5.85;;;9.70;99.90;;;;;;4886440;29;20270;-87
2022/09/20 04:19:16;;;;;;;12.15;6.00;;;9.70;99.90;;;;;;4899337;29;20219;-86
2022/09/20 04:21:56;;;;;;;14.40;5.63;;;9.70;99.90;;;;;;4898961;29;20170;-88
2022/09/20 04:24:38;;;;;;;12.90;5.95;;;9.70;99.90;;;;;;4898955;29;20233;-88
2022/09/20 04:27:13;;;;;;;17.75;5.85;;;9.70;99.90;;;;;;4898853;29;20213;-85
2022/09/20 04:29:51;;;;;;;14.27;6.35;;;9.70;99.90;;;;;;4899438;29;20185;-87
2022/09/20 04:32:51;;;;;;;13.15;6.20;;;9.80;99.90;;;;;;4915736;29;20173;-87
2022/09/20 04:38:30;;;;;;;12.48;5.40;;;9.70;99.90;;;;;;4916187;29;20583;-87
2022/09/20 04:41:11;;;;;;;16.90;6.45;;;9.70;99.90;;;;;;4898892;29;20178;-86
2022/09/20 04:44:05;;;;;;;11.52;6.20;;;9.70;99.90;;;;;;4898551;29;20198;-87
2022/09/20 04:46:32;;;;;;;12.57;5.95;;;9.70;99.90;;;;;;4898974;29;20181;-86
2022/09/20 04:49:16;;;;;;;13.30;6.15;;;9.70;99.90;;;;;;4898057;29;20191;-86
2022/09/20 04:51:56;;;;;;;11.00;6.13;;;9.60;99.90;;;;;;4898713;29;20209;-87
2022/09/20 04:54:56;;;;;;;14.85;5.90;;;9.60;99.90;;;;;;4898512;29;20305;-87
2022/09/20 04:58:00;;;;;;;12.75;5.75;;;9.60;99.90;;;;;;4898858;29;20270;-86
2022/09/20 05:00:53;;;;;;;12.20;5.82;;;9.70;99.90;;;;;;4898311;29;20178;-87
2022/09/20 05:03:49;;;;;;;19.45;7.10;;;9.60;99.90;;;;;;4898381;29;20189;-86
2022/09/20 05:06:57;;;;;;;15.25;7.10;;;9.60;99.90;;;;;;4898906;29;20217;-87
2022/09/20 05:09:58;;;;;;;14.82;6.50;;;9.60;99.90;;;;;;4867603;29;20277;-85
2022/09/20 05:12:42;;;;;;;18.30;7.18;;;9.70;99.90;;;;;;4898729;29;20197;-86
2022/09/20 05:15:55;;;;;;;12.85;6.35;;;9.70;99.90;;;;;;4898272;29;20209;-87
2022/09/20 05:18:59;;;;;;;18.15;7.63;;;9.70;99.90;;;;;;4888712;29;20194;-87
2022/09/20 05:21:35;;;;;;;14.60;7.50;;;9.70;99.90;;;;;;4816493;29;20193;-87
2022/09/20 05:24:39;;;;;;;12.50;7.10;;;9.70;99.90;;;;;;4915439;29;20201;-87
2022/09/20 05:27:21;;;;;;;15.35;7.40;;;9.70;99.90;;;;;;4898482;29;20180;-86
2022/09/20 05:29:50;;;;;;;15.93;8.52;;;9.70;99.90;;;;;;4898419;29;20756;-86
2022/09/20 05:32:32;;;;;;;15.88;7.28;;;9.70;99.90;;;;;;4915502;29;20167;-87
2022/09/20 05:35:20;;;;;;;15.27;8.02;;;9.80;99.90;;;;;;4898186;29;20207;-88
2022/09/20 05:37:55;;;;;;;16.10;7.13;;;9.80;99.90;;;;;;4897795;29;20182;-86
2022/09/20 05:40:38;;;;;;;14.95;7.65;;;9.80;99.90;;;;;;4903587;29;20193;-87
2022/09/20 05:43:25;;;;;;;13.98;7.40;;;9.80;99.90;;;;;;4917098;29;20264;-87
2022/09/20 05:46:03;;;;;;;19.58;7.97;;;9.90;99.90;;;;;;4916908;29;20229;-87
2022/09/20 05:48:51;;;;;;;14.68;6.63;;;9.90;99.90;;;;;;4917333;29;20198;-86
2022/09/20 05:51:54;;;;;;;11.48;6.90;;;9.80;99.90;;;;;;4917082;29;20257;-87
2022/09/20 05:54:47;;;;;;;14.45;7.10;;;9.80;99.90;;;;;;4933732;29;20169;-87
2022/09/20 05:57:37;;;;;;;15.00;7.13;;;9.80;99.90;;;;;;4916990;29;20265;-87
2022/09/20 06:00:09;;;;;;;16.45;6.63;;;9.80;99.90;;;;;;4933617;29;20245;-87
2022/09/20 06:03:00;;;;;;;17.85;7.25;;;9.80;99.90;;;;;;4916855;29;20189;-87
2022/09/20 06:05:41;;;;;;;16.88;7.13;;;9.80;99.90;;;;;;4917731;29;20300;-86
2022/09/20 06:09:04;;;;;;;14.55;7.30;;;9.90;99.90;;;;;;4920374;29;20225;-88
2022/09/20 06:12:08;;;;;;;14.75;7.03;;;9.80;99.90;;;;;;4864217;29;20648;-86
2022/09/20 06:14:46;;;;;;;14.63;6.88;;;9.80;99.90;;;;;;4832024;29;20227;-85
2022/09/20 06:17:27;;;;;;;18.52;7.55;;;9.80;99.90;;;;;;4897883;29;20646;-85
2022/09/20 06:20:12;;;;;;;13.07;6.43;;;9.90;99.90;;;;;;4918409;29;20183;-87
2022/09/20 06:22:41;;;;;;;13.98;6.60;;;9.90;99.90;;;;;;4901319;29;20179;-88
2022/09/20 06:25:07;;;;;;;17.00;6.18;;;9.90;99.90;;;;;;4900898;29;20270;-87
2022/09/20 06:27:49;;;;;;;12.85;6.55;;;9.90;99.90;;;;;;4901196;29;20178;-87
2022/09/20 06:30:36;;;;;;;14.77;6.55;;;9.90;99.90;;;;;;4901189;29;20178;-87
2022/09/20 06:33:17;;;;;;;14.27;6.20;;;10.00;99.90;;;;;;4900901;29;20326;-87
2022/09/20 06:41:25;;;;;;;14.70;5.93;;;10.00;99.90;;;;;;4900779;29;20205;-87
2022/09/20 06:41:43;;;;;;;10.88;5.47;;;10.00;99.90;;;;;;4917536;29;20662;-88
2022/09/20 06:44:09;;;;;;;9.95;5.05;;;10.00;99.90;;;;;;4900420;29;20242;-87
2022/09/20 06:46:35;;;;;;;9.98;4.70;;;10.00;99.90;;;;;;4900666;29;20209;-88
2022/09/20 06:49:02;;;;;;;7.03;4.05;;;10.10;99.90;;;;;;4900821;29;20647;-87
2022/09/20 06:51:34;;;;;;;9.95;4.70;;;10.10;99.90;;;;;;4900754;29;20185;-86
2022/09/20 06:54:00;;;;;;;13.57;5.40;;;10.10;99.90;;;;;;4900656;29;20182;-86
2022/09/20 06:56:29;;;;;;;7.07;4.60;;;10.10;99.90;;;;;;4917416;29;20206;-86
2022/09/20 06:58:55;;;;;;;7.30;4.70;;;10.10;99.90;;;;;;4900402;29;20241;-85
2022/09/20 07:01:21;;;;;;;9.70;5.20;;;10.10;99.90;;;;;;4900371;29;20218;-87
2022/09/20 07:03:47;;;;;;;10.15;5.03;;;10.10;99.90;;;;;;4900597;29;20206;-86
2022/09/20 07:06:18;;;;;;;10.10;5.65;;;10.10;99.90;;;;;;4900485;29;20715;-87
2022/09/20 07:08:47;;;;;;;13.02;5.70;;;10.10;99.90;;;;;;4900223;29;20637;-87
2022/09/20 07:11:15;;;;;;;8.38;4.70;;;10.20;99.90;;;;;;4899943;29;20325;-87
2022/09/20 07:13:48;;;;;;;7.63;4.65;;;10.20;99.90;;;;;;4900248;29;20725;-86
2022/09/20 07:16:14;;;;;;;7.28;4.97;;;10.20;99.90;;;;;;4899673;29;20210;-87
2022/09/20 07:18:41;;;;;;;9.07;4.53;;;10.30;99.90;;;;;;4900310;29;20234;-87
2022/09/20 07:21:15;;;;;;;10.40;4.65;;;10.20;99.90;;;;;;4899806;29;20189;-87
2022/09/20 07:23:41;;;;;;;8.52;5.47;;;10.30;99.90;;;;;;4899997;29;20202;-86
2022/09/20 07:26:23;;;;;;;8.27;5.20;;;10.30;99.90;;;;;;4916873;29;20619;-87
2022/09/20 07:28:49;;;;;;;10.55;5.20;;;10.30;99.90;;;;;;4900300;29;20226;-87
2022/09/20 07:31:18;;;;;;;9.40;5.43;;;10.30;99.90;;;;;;4900161;29;20170;-86
2022/09/20 07:33:44;;;;;;;11.45;5.40;;;10.30;99.90;;;;;;4899807;29;20250;-86
2022/09/20 07:36:11;;;;;;;11.65;6.30;;;10.30;99.90;;;;;;4900075;29;20541;-87
2022/09/20 07:38:37;;;;;;;9.85;5.18;;;10.40;99.90;;;;;;4916988;29;20567;-87
2022/09/20 07:41:04;;;;;;;13.13;5.85;;;10.40;99.90;;;;;;4900067;29;20182;-87
2022/09/20 07:43:30;;;;;;;10.50;6.32;;;10.50;99.90;;;;;;4916574;29;20175;-87
2022/09/20 07:45:58;;;;;;;11.05;5.45;;;10.50;99.90;;;;;;4899597;29;20203;-87
2022/09/20 07:48:35;;;;;;;8.38;5.53;;;10.60;99.90;;;;;;4899554;29;20261;-86
2022/09/20 07:51:09;;;;;;;12.00;6.55;;;10.60;99.90;;;;;;4916494;29;20619;-87
2022/09/20 07:53:36;;;;;;;11.68;6.25;;;10.60;99.90;;;;;;4899949;29;20185;-87
2022/09/20 07:56:12;;;;;;;10.63;5.55;;;10.60;99.90;;;;;;4916471;29;20202;-88
2022/09/20 07:58:39;;;;;;;9.63;5.65;;;10.70;99.90;;;;;;4916753;29;20662;-87
2022/09/20 08:01:07;;;;;;;11.35;6.22;;;10.70;99.90;;;;;;4899776;29;20285;-87
2022/09/20 08:03:35;;;;;;;9.13;5.90;;;10.70;99.90;;;;;;4899602;29;20613;-87
2022/09/20 08:06:08;;;;;;;8.98;5.97;;;10.70;99.90;;;;;;4899672;29;20202;-87
2022/09/20 08:08:37;;;;;;;9.32;6.10;;;10.70;99.90;;;;;;4899537;29;20679;-87
2022/09/20 08:11:15;;;;;;;8.63;5.32;;;10.70;99.90;;;;;;4898757;29;20655;-87
2022/09/20 08:13:48;;;;;;;9.05;5.20;;;10.70;99.90;;;;;;4897614;29;20190;-87
2022/09/20 08:16:16;;;;;;;8.65;6.00;;;10.80;99.90;;;;;;4916545;29;20274;-87
2022/09/20 08:18:51;;;;;;;12.23;6.47;;;10.80;99.90;;;;;;4899092;29;20175;-86
2022/09/20 08:21:18;;;;;;;9.98;5.80;;;10.90;99.90;;;;;;4916117;29;20166;-87
2022/09/20 08:23:49;;;;;;;10.18;6.38;;;10.90;99.90;;;;;;4899307;29;20247;-87
2022/09/20 08:26:19;;;;;;;11.80;6.15;;;10.90;99.90;;;;;;4898706;29;20670;-88
2022/09/20 08:28:46;;;;;;;11.57;6.22;;;11.00;99.90;;;;;;4899139;29;20205;-87
2022/09/20 08:31:19;;;;;;;8.52;6.13;;;11.00;99.90;;;;;;4899110;29;20174;-87
2022/09/20 08:33:47;;;;;;;11.00;7.07;;;11.10;99.90;;;;;;4898918;29;20182;-87
2022/09/20 08:36:16;;;;;;;12.43;6.72;;;11.10;99.90;;;;;;4898949;29;20262;-85
2022/09/20 08:38:42;;;;;;;11.18;6.50;;;11.10;99.90;;;;;;4899364;29;20183;-87
2022/09/20 08:41:22;;;;;;;11.23;6.95;;;11.10;99.90;;;;;;4899100;29;20752;-87
2022/09/20 08:43:58;;;;;;;12.10;6.75;;;11.10;99.90;;;;;;4899125;29;20253;-88
2022/09/20 08:46:37;;;;;;;13.73;7.28;;;11.10;99.90;;;;;;4898992;29;20651;-87
2022/09/20 08:49:09;;;;;;;10.77;6.82;;;11.10;99.90;;;;;;4915859;29;20159;-87
2022/09/20 08:51:38;;;;;;;10.80;7.38;;;11.10;99.90;;;;;;4898975;29;20198;-88
2022/09/20 08:54:06;;;;;;;11.52;7.28;;;11.10;99.90;;;;;;4898932;29;20198;-87
2022/09/20 08:56:36;;;;;;;11.57;7.07;;;11.10;99.90;;;;;;4916371;29;20167;-88
2022/09/20 08:59:03;;;;;;;12.90;7.13;;;11.10;99.90;;;;;;4898825;29;20181;-87
2022/09/20 09:01:31;;;;;;;11.27;6.50;;;11.10;99.90;;;;;;4915581;29;20166;-87
2022/09/20 09:04:18;;;;;;;12.75;6.30;;;11.00;99.90;;;;;;4898895;29;20199;-86
2022/09/20 09:06:45;;;;;;;8.50;6.45;;;11.10;99.90;;;;;;4898790;29;20383;-87
2022/09/20 09:09:19;;;;;;;9.20;6.18;;;11.00;99.90;;;;;;4898838;29;20190;-88
2022/09/20 09:11:48;;;;;;;9.10;6.50;;;11.10;99.90;;;;;;4915730;29;20234;-86
2022/09/20 09:14:54;;;;;;;11.32;6.75;;;11.20;99.90;;;;;;4915517;29;20230;-87
2022/09/20 09:17:25;;;;;;;9.10;6.78;;;11.20;99.90;;;;;;4869155;29;20194;-87
2022/09/20 09:19:56;;;;;;;8.70;6.50;;;11.20;99.90;;;;;;4898738;29;20182;-88
2022/09/20 09:22:41;;;;;;;8.55;6.35;;;11.30;99.90;;;;;;4898947;29;20198;-88
2022/09/20 09:25:16;;;;;;;12.18;5.57;;;11.30;99.90;;;;;;4898290;29;20214;-87
2022/09/20 09:27:56;;;;;;;7.78;5.82;;;11.30;99.90;;;;;;4898669;29;20163;-88
2022/09/20 09:30:26;;;;;;;15.10;5.55;;;11.40;99.90;;;;;;4898281;29;20180;-88
2022/09/20 09:33:01;;;;;;;11.38;5.80;;;11.30;99.90;;;;;;4898612;29;20265;-87
2022/09/20 09:35:30;;;;;;;6.20;4.50;;;11.40;99.90;;;;;;4898602;29;20203;-88
2022/09/20 09:38:01;;;;;;;7.07;4.75;;;11.50;99.90;;;;;;4898375;29;20196;-87
2022/09/20 09:40:30;;;;;;;8.32;5.03;;;11.60;99.90;;;;;;4896758;29;20258;-87
2022/09/20 09:42:59;;;;;;;6.03;4.20;;;11.60;99.90;;;;;;4900459;29;20542;-87
2022/09/20 09:45:37;;;;;;;7.10;4.32;;;11.70;99.90;;;;;;4883399;29;20227;-88
2022/09/20 09:48:26;;;;;;;4.75;4.00;;;11.70;99.90;;;;;;4883615;29;20520;-87
2022/09/20 09:51:13;;;;;;;4.70;3.78;;;11.80;99.90;;;;;;4900480;29;20168;-86
2022/09/20 09:53:41;;;;;;;4.38;3.35;;;11.80;99.90;;;;;;4883375;29;20252;-87
2022/09/20 09:56:28;;;;;;;4.93;3.25;;;11.90;99.90;;;;;;4883504;29;20286;-88
2022/09/20 09:59:20;;;;;;;4.22;3.15;;;12.00;99.90;;;;;;4899164;29;20576;-87
2022/09/20 10:01:55;;;;;;;7.70;3.20;;;12.20;99.90;;;;;;4850494;29;20552;-88
2022/09/20 10:04:33;;;;;;;5.10;3.20;;;12.40;99.90;;;;;;4898678;29;20202;-88
2022/09/20 10:07:26;;;;;;;5.82;2.90;;;12.50;99.90;;;;;;4899959;29;20163;-87
2022/09/20 10:10:20;;;;;;;3.63;2.78;;;12.50;99.90;;;;;;4883215;29;20247;-88
2022/09/20 10:12:53;;;;;;;4.75;2.85;;;12.40;99.90;;;;;;4879838;29;20195;-86
2022/09/20 10:15:40;;;;;;;5.15;2.97;;;12.50;99.90;;;;;;4883065;29;20206;-87
2022/09/20 10:18:32;;;;;;;6.28;2.80;;;12.40;99.90;;;;;;4898842;29;20300;-87
2022/09/20 10:21:10;;;;;;;4.57;3.08;;;12.50;99.90;;;;;;4874719;29;20191;-88
2022/09/20 10:23:52;;;;;;;4.75;2.90;;;12.60;99.90;;;;;;4898471;29;20305;-86
2022/09/20 10:26:42;;;;;;;5.28;2.85;;;12.70;99.90;;;;;;4898150;29;20581;-87
2022/09/20 10:29:44;;;;;;;3.58;2.67;;;12.80;99.90;;;;;;4898199;29;20540;-87
2022/09/20 10:32:45;;;;;;;3.85;2.55;;;12.90;99.90;;;;;;4882782;29;20802;-88
2022/09/20 10:35:23;;;;;;;3.97;2.67;;;13.00;99.90;;;;;;4866544;29;20218;-87
2022/09/20 10:38:20;;;;;;;4.70;2.95;;;13.00;99.90;;;;;;4898307;29;20183;-88
2022/09/20 10:44:17;;;;;;;2.72;2.03;;;13.10;99.90;;;;;;4899354;29;20218;-87
2022/09/20 10:47:04;;;;;;;2.78;2.30;;;13.10;99.90;;;;;;4898478;29;20636;-88
2022/09/20 10:49:39;;;;;;;3.72;2.20;;;13.10;99.90;;;;;;4845671;29;20219;-87
2022/09/20 10:52:33;;;;;;;3.40;2.10;;;13.20;99.90;;;;;;4897449;29;20609;-88
2022/09/20 10:55:27;;;;;;;2.45;1.40;;;13.30;99.90;;;;;;4882068;29;20210;-87
2022/09/20 10:58:18;;;;;;;4.78;1.60;;;13.30;99.90;;;;;;4898511;29;20755;-88
2022/09/20 11:01:17;;;;;;;1.40;1.27;;;13.30;99.90;;;;;;4878763;29;20199;-89
2022/09/20 11:03:59;;;;;;;3.25;1.80;;;13.40;99.90;;;;;;4897802;29;20306;-87
2022/09/20 11:06:37;;;;;;;2.05;1.08;;;13.60;99.90;;;;;;4882291;29;20236;-87
2022/09/20 11:09:08;;;;;;;3.03;1.40;;;13.70;99.90;;;;;;4897602;29;20591;-87
2022/09/20 11:11:42;;;;;;;4.05;1.35;;;13.80;99.90;;;;;;4897857;29;20234;-88
2022/09/20 11:14:36;;;;;;;3.70;1.42;;;13.90;99.90;;;;;;4881984;29;20643;-88
2022/09/20 11:17:17;;;;;;;3.17;1.40;;;14.00;99.90;;;;;;4882224;29;20183;-88
2022/09/20 11:19:59;;;;;;;5.10;1.60;;;14.00;99.90;;;;;;4882248;29;20640;-88
2022/09/20 11:22:39;;;;;;;1.20;0.80;;;14.20;99.90;;;;;;4897732;29;20221;-87
2022/09/20 11:25:20;;;;;;;0.90;0.90;;;14.60;99.90;;;;;;4881855;29;20230;-88
2022/09/20 11:28:01;;;;;;;2.65;0.90;;;14.80;99.90;;;;;;4898602;29;20178;-88
2022/09/20 11:30:29;;;;;;;2.05;0.95;;;14.90;99.90;;;;;;4881953;29;20175;-88
2022/09/20 11:33:20;;;;;;;4.43;1.08;;;14.90;99.90;;;;;;4881811;29;20264;-89
2022/09/20 11:35:57;;;;;;;1.45;1.10;;;14.80;99.90;;;;;;4893738;29;20251;-88
2022/09/20 11:38:45;;;;;;;5.43;1.00;;;14.80;99.90;;;;;;4881686;29;20204;-87
2022/09/20 11:41:27;;;;;;;2.30;1.00;;;14.80;99.90;;;;;;4900694;29;20252;-88
2022/09/20 11:43:58;;;;;;;2.10;1.10;;;14.90;99.90;;;;;;4918876;29;20218;-87
2022/09/20 11:46:34;;;;;;;0.90;0.80;;;15.00;99.90;;;;;;4911314;29;20253;-88
2022/09/20 11:49:19;;;;;;;1.75;0.80;;;15.00;99.90;;;;;;4918990;29;20174;-88
2022/09/20 11:51:56;;;;;;;1.20;0.50;;;15.00;99.90;;;;;;4918958;29;20182;-88
2022/09/20 11:55:04;;;;;;;0.50;0.50;;;14.80;99.90;;;;;;4919212;29;20750;-88
2022/09/20 11:57:30;;;;;;;0.98;0.50;;;14.90;99.90;;;;;;4903345;29;20198;-88
2022/09/20 12:00:02;;;;;;;3.30;0.50;;;14.80;99.90;;;;;;4918968;29;20182;-88
2022/09/20 12:02:50;;;;;;;0.88;0.43;;;14.90;98.80;;;;;;4918857;29;20186;-88
2022/09/20 12:05:40;;;;;;;0.68;0.40;;;15.00;99.90;;;;;;4918568;29;20312;-87
2022/09/20 12:08:36;;;;;;;1.63;0.60;;;15.10;99.60;;;;;;4918872;29;20658;-87
2022/09/20 12:11:06;;;;;;;4.13;0.50;;;15.30;99.90;;;;;;4927022;29;20226;-88
2022/09/20 12:13:35;;;;;;;2.35;0.80;;;15.20;99.90;;;;;;4899767;29;20572;-87
2022/09/20 12:16:11;;;;;;;2.08;0.60;;;15.20;98.90;;;;;;4899933;29;20206;-87
2022/09/20 12:18:55;;;;;;;1.30;0.50;;;15.00;99.90;;;;;;4899858;29;20174;-87
2022/09/20 12:21:21;;;;;;;0.70;0.40;;;14.80;99.90;;;;;;4900095;29;20171;-88
2022/09/20 12:23:56;;;;;;;1.60;0.40;;;14.70;99.90;;;;;;4899508;29;20213;-88
2022/09/20 12:26:22;;;;;;;1.20;0.60;;;14.60;99.90;;;;;;4899632;29;20230;-88
2022/09/20 12:28:57;;;;;;;0.88;0.60;;;14.80;99.90;;;;;;4899806;29;20182;-87
2022/09/20 12:31:30;;;;;;;2.40;0.60;;;15.10;99.90;;;;;;4899590;29;20539;-88
2022/09/20 12:33:58;;;;;;;2.10;0.47;;;15.50;99.90;;;;;;4899492;29;20175;-88
2022/09/20 12:36:35;;;;;;;1.30;0.43;;;15.90;99.90;;;;;;4916177;29;20564;-87
2022/09/20 12:39:48;;;;;;;2.08;0.50;;;16.20;99.90;;;;;;4899387;29;20178;-88
2022/09/20 12:42:17;;;;;;;0.50;0.30;;;16.50;99.90;;;;;;4881550;29;20195;-88
2022/09/20 12:44:49;;;;;;;1.08;0.50;;;16.70;99.90;;;;;;4895806;29;20223;-87
2022/09/20 12:47:21;;;;;;;0.88;0.40;;;16.90;99.90;;;;;;4896122;29;20291;-86
2022/09/20 12:53:02;;;;;;;0.55;0.20;;;17.00;99.20;;;;;;4897037;29;20248;-87
2022/09/20 12:55:51;;;;;;;3.75;0.40;;;17.00;98.70;;;;;;4895447;29;20207;-87
2022/09/20 12:58:27;;;;;;;0.93;0.40;;;17.00;99.00;;;;;;4880347;29;20270;-87
2022/09/20 13:00:58;;;;;;;2.28;0.60;;;17.20;99.90;;;;;;4897275;29;20235;-87
2022/09/20 13:03:40;;;;;;;5.32;0.38;;;17.40;99.50;;;;;;4895685;29;20190;-88
2022/09/20 13:06:06;;;;;;;1.13;0.30;;;17.60;97.20;;;;;;4880365;29;20222;-87
2022/09/20 13:08:51;;;;;;;1.83;0.40;;;17.70;96.20;;;;;;4896162;29;20632;-87
2022/09/20 13:11:23;;;;;;;1.55;0.47;;;17.70;98.80;;;;;;4901431;29;20260;-87
2022/09/20 13:13:58;;;;;;;1.90;0.40;;;17.70;98.60;;;;;;4935074;29;20626;-88
2022/09/20 13:16:30;;;;;;;3.58;0.40;;;17.30;98.10;;;;;;4938612;29;20205;-88
2022/09/20 13:19:14;;;;;;;3.40;0.40;;;17.00;98.60;;;;;;4921966;29;20630;-88
2022/09/20 13:21:47;;;;;;;1.00;0.38;;;16.00;99.00;;;;;;4915753;29;20189;-87
2022/09/20 13:24:17;;;;;;;1.08;0.45;;;15.30;99.90;;;;;;4921166;29;20248;-85
2022/09/20 13:26:45;;;;;;;0.77;0.30;;;14.40;99.90;;;;;;4920850;29;20596;-86
2022/09/20 13:29:32;;;;;;;1.70;0.40;;;13.90;99.90;;;;;;4920555;29;20210;-86
2022/09/20 13:32:23;;;;;;;0.85;0.30;;;13.50;99.90;;;;;;4921006;29;20656;-87
2022/09/20 13:35:11;;;;;;;1.60;0.40;;;13.30;99.90;;;;;;4930250;29;20209;-86
2022/09/20 13:37:50;;;;;;;1.63;0.52;;;13.10;99.90;;;;;;4920891;29;20182;-86
2022/09/20 13:40:17;;;;;;;2.83;0.50;;;13.00;99.90;;;;;;4937795;29;20177;-87
2022/09/20 13:42:45;;;;;;;2.58;0.50;;;12.80;99.90;;;;;;4920332;29;20178;-85
2022/09/20 13:45:16;;;;;;;3.85;0.65;;;12.70;99.90;;;;;;4920685;29;20217;-87
2022/09/20 13:47:46;;;;;;;2.38;0.43;;;12.60;99.90;;;;;;4920561;29;20575;-86
2022/09/20 13:50:29;;;;;;;1.75;0.40;;;12.70;99.90;;;;;;4920741;29;20189;-88
2022/09/20 13:52:59;;;;;;;2.00;0.47;;;12.50;99.90;;;;;;4920806;29;20205;-87
2022/09/20 13:55:34;;;;;;;2.15;0.52;;;12.40;99.90;;;;;;4937240;29;20208;-87
2022/09/20 13:58:06;;;;;;;1.40;0.40;;;12.30;99.90;;;;;;4920574;29;20192;-88
2022/09/20 14:00:33;;;;;;;2.05;0.60;;;12.30;99.90;;;;;;4921056;29;20272;-86
2022/09/20 14:03:01;;;;;;;0.63;0.30;;;12.10;99.90;;;;;;4937948;29;20162;-87
2022/09/20 14:05:29;;;;;;;1.27;0.40;;;12.10;99.90;;;;;;4920532;29;20303;-88
2022/09/20 14:07:58;;;;;;;1.90;0.40;;;12.10;99.90;;;;;;4921067;29;20189;-86